Time;durP1;ratioP1;P1;durP2;ratioP2;P2;SDS_P1;SDS_P2;PMS_P1;PMS_P2;Temp;Humidity;BMP_temperature;BMP_pressure;BME280_temperature;BME280_humidity;BME280_pressure;Samples;Min_cycle;Max_cycle;Signal;HPM_P1;HPM_P2
2023/09/23 00:01:46;;;;;;;9.18;1.77;;;12.00;99.90;;;;;;4950007;28;20074;-68
2023/09/23 00:04:12;;;;;;;6.50;1.48;;;12.00;99.90;;;;;;4921694;28;20085;-68
2023/09/23 00:06:38;;;;;;;6.82;1.65;;;12.00;99.90;;;;;;4951593;28;20070;-67
2023/09/23 00:09:04;;;;;;;6.85;1.85;;;12.10;99.90;;;;;;4905541;28;159361;-68
2023/09/23 00:11:31;;;;;;;8.27;1.77;;;12.10;99.90;;;;;;4946542;28;20055;-67
2023/09/23 00:13:57;;;;;;;7.22;1.70;;;12.10;99.90;;;;;;4918637;28;56167;-68
2023/09/23 00:16:23;;;;;;;9.75;1.90;;;12.00;99.90;;;;;;4952614;28;20421;-67
2023/09/23 00:18:49;;;;;;;7.78;1.55;;;12.00;99.90;;;;;;4906961;28;204226;-68
2023/09/23 00:21:15;;;;;;;6.45;1.55;;;12.00;99.90;;;;;;4946365;28;20047;-68
2023/09/23 00:23:41;;;;;;;7.22;1.50;;;12.00;99.90;;;;;;4916397;28;93090;-68
2023/09/23 00:26:08;;;;;;;7.57;1.70;;;12.00;99.90;;;;;;4958972;28;20070;-67
2023/09/23 00:28:34;;;;;;;7.57;1.60;;;12.00;99.90;;;;;;4910291;28;123074;-67
2023/09/23 00:31:11;;;;;;;8.02;1.60;;;11.90;99.90;;;;;;4954178;28;20043;-67
2023/09/23 00:33:37;;;;;;;7.85;1.70;;;11.90;99.90;;;;;;4905549;28;65608;-68
2023/09/23 00:36:08;;;;;;;4.68;1.33;;;11.90;99.90;;;;;;4949644;28;20524;-68
2023/09/23 00:38:36;;;;;;;6.47;1.40;;;11.90;99.90;;;;;;4910134;28;97761;-68
2023/09/23 00:41:03;;;;;;;6.22;1.40;;;11.90;99.90;;;;;;4944862;28;20051;-67
2023/09/23 00:43:32;;;;;;;6.00;1.40;;;11.90;99.90;;;;;;4909011;28;169090;-68
2023/09/23 00:45:59;;;;;;;8.20;1.60;;;11.90;99.90;;;;;;4946117;28;20058;-68
2023/09/23 00:48:26;;;;;;;6.72;1.50;;;11.80;99.90;;;;;;4907621;28;210617;-68
2023/09/23 00:50:54;;;;;;;6.57;1.50;;;11.80;99.90;;;;;;4947697;28;20063;-68
2023/09/23 00:53:22;;;;;;;5.88;1.58;;;11.80;99.90;;;;;;4892486;28;129396;-67
2023/09/23 00:55:52;;;;;;;7.95;1.70;;;11.80;99.90;;;;;;4935991;28;20054;-67
2023/09/23 00:58:21;;;;;;;6.85;1.90;;;11.80;99.90;;;;;;4907011;28;252542;-68
2023/09/23 01:00:49;;;;;;;7.55;1.70;;;11.80;99.90;;;;;;4954997;28;20056;-69
2023/09/23 01:03:15;;;;;;;7.78;1.88;;;11.80;99.90;;;;;;4913709;28;20058;-68
2023/09/23 01:05:44;;;;;;;8.32;1.80;;;11.80;99.90;;;;;;4955028;28;20055;-68
2023/09/23 01:08:18;;;;;;;7.30;1.90;;;11.80;99.90;;;;;;4905961;28;212398;-68
2023/09/23 01:10:45;;;;;;;6.63;1.58;;;11.80;99.90;;;;;;4946198;28;20413;-67
2023/09/23 01:13:11;;;;;;;5.88;1.50;;;11.80;99.90;;;;;;4904201;28;179484;-68
2023/09/23 01:15:40;;;;;;;8.65;1.77;;;11.80;99.90;;;;;;4942842;28;20504;-69
2023/09/23 01:18:17;;;;;;;7.47;1.70;;;11.80;99.90;;;;;;4913088;28;69680;-69
2023/09/23 01:20:48;;;;;;;7.50;1.80;;;11.70;99.90;;;;;;4957591;28;20509;-68
2023/09/23 01:23:15;;;;;;;7.43;1.90;;;11.70;99.90;;;;;;4908667;28;193250;-69
2023/09/23 01:25:42;;;;;;;8.00;2.08;;;11.80;99.90;;;;;;4956474;28;20074;-68
2023/09/23 01:28:11;;;;;;;7.25;1.83;;;11.80;99.90;;;;;;4911338;28;40218;-68
2023/09/23 01:30:39;;;;;;;6.50;1.88;;;11.80;99.90;;;;;;4957703;28;20510;-68
2023/09/23 01:33:07;;;;;;;10.02;2.40;;;11.80;99.90;;;;;;4904628;28;160254;-69
2023/09/23 01:35:34;;;;;;;8.25;2.10;;;11.80;99.90;;;;;;4958145;28;20062;-69
2023/09/23 01:38:04;;;;;;;8.43;2.30;;;11.80;99.90;;;;;;4911669;28;85728;-68
2023/09/23 01:40:31;;;;;;;7.28;2.40;;;11.80;99.90;;;;;;4958904;28;20065;-68
2023/09/23 01:42:58;;;;;;;9.20;2.80;;;11.90;99.90;;;;;;4919232;28;20058;-68
2023/09/23 01:45:28;;;;;;;9.23;2.85;;;11.90;99.90;;;;;;4929882;28;20054;-68
2023/09/23 01:47:57;;;;;;;8.13;2.70;;;11.90;99.90;;;;;;4921326;28;20052;-68
2023/09/23 01:50:24;;;;;;;8.95;3.40;;;11.90;99.90;;;;;;4927486;28;254392;-68
2023/09/23 01:52:51;;;;;;;9.48;3.97;;;12.00;99.90;;;;;;4918488;28;20066;-68
2023/09/23 01:55:18;;;;;;;10.30;4.20;;;12.00;99.90;;;;;;4922821;28;141987;-68
2023/09/23 01:57:45;;;;;;;10.32;4.32;;;11.90;99.90;;;;;;4919857;28;20061;-68
2023/09/23 02:00:18;;;;;;;11.52;4.45;;;12.00;99.90;;;;;;4912645;28;250383;-68
2023/09/23 02:02:45;;;;;;;11.02;4.78;;;12.00;99.90;;;;;;4921499;28;20054;-69
2023/09/23 02:05:11;;;;;;;10.32;4.70;;;12.10;99.90;;;;;;4950485;28;58062;-67
2023/09/23 02:07:39;;;;;;;10.48;4.85;;;12.00;99.90;;;;;;4918350;28;20063;-67
2023/09/23 02:10:08;;;;;;;13.73;5.53;;;12.10;99.90;;;;;;4917863;28;123681;-68
2023/09/23 02:12:35;;;;;;;11.13;5.43;;;12.10;99.90;;;;;;4946400;28;20054;-68
2023/09/23 02:15:02;;;;;;;11.90;5.60;;;12.10;99.90;;;;;;4937581;28;146643;-67
2023/09/23 02:17:28;;;;;;;13.73;5.93;;;12.10;99.90;;;;;;4947445;28;20055;-68
2023/09/23 02:19:54;;;;;;;12.75;5.30;;;12.10;99.90;;;;;;4903009;28;85013;-69
2023/09/23 02:22:21;;;;;;;10.88;5.25;;;12.10;99.90;;;;;;4945367;28;20545;-68
2023/09/23 02:24:47;;;;;;;12.90;5.68;;;12.10;99.90;;;;;;4916509;28;224397;-68
2023/09/23 02:27:14;;;;;;;12.38;5.80;;;12.10;99.90;;;;;;4946603;28;20426;-68
2023/09/23 02:29:41;;;;;;;11.27;5.50;;;12.00;99.90;;;;;;4904763;28;170489;-69
2023/09/23 02:32:07;;;;;;;8.65;4.55;;;12.00;99.90;;;;;;4959451;28;20051;-67
2023/09/23 02:34:34;;;;;;;11.10;5.10;;;12.00;99.90;;;;;;4918199;28;55271;-68
2023/09/23 02:37:00;;;;;;;12.02;5.45;;;11.90;99.90;;;;;;4959969;28;20066;-69
2023/09/23 02:39:26;;;;;;;11.55;5.57;;;11.90;99.90;;;;;;4914196;28;160366;-71
2023/09/23 02:41:52;;;;;;;12.35;5.90;;;11.80;99.90;;;;;;4948179;28;20059;-68
2023/09/23 02:44:20;;;;;;;11.85;5.45;;;11.80;99.90;;;;;;4899940;28;216075;-68
2023/09/23 02:46:49;;;;;;;11.90;5.30;;;11.70;99.90;;;;;;4953214;28;20059;-68
2023/09/23 02:49:16;;;;;;;12.45;5.78;;;11.70;99.90;;;;;;4903956;28;130518;-68
2023/09/23 02:51:44;;;;;;;14.40;6.20;;;11.60;99.90;;;;;;4949796;28;20055;-67
2023/09/23 02:54:13;;;;;;;12.15;5.88;;;11.60;99.90;;;;;;4874567;28;175963;-68
2023/09/23 02:56:40;;;;;;;12.57;6.03;;;11.60;99.90;;;;;;4947761;28;20433;-68
2023/09/23 02:59:13;;;;;;;13.25;6.25;;;11.50;99.90;;;;;;4917817;28;50777;-68
2023/09/23 03:01:45;;;;;;;12.07;6.88;;;11.50;99.90;;;;;;4948306;28;20059;-68
2023/09/23 03:04:23;;;;;;;14.05;6.25;;;11.50;99.90;;;;;;4901633;28;217200;-69
2023/09/23 03:06:54;;;;;;;12.95;6.90;;;11.50;99.90;;;;;;4947006;28;20419;-69
2023/09/23 03:09:23;;;;;;;14.35;7.15;;;11.40;99.90;;;;;;4909279;28;203417;-69
2023/09/23 03:11:55;;;;;;;14.27;6.90;;;11.40;99.90;;;;;;4946762;28;20591;-67
2023/09/23 03:14:30;;;;;;;13.82;7.35;;;11.30;99.90;;;;;;4904177;28;118857;-68
2023/09/23 03:16:57;;;;;;;14.38;7.15;;;11.30;99.90;;;;;;4952042;28;20576;-68
2023/09/23 03:19:27;;;;;;;12.77;7.78;;;11.30;99.90;;;;;;4892213;28;65749;-68
2023/09/23 03:21:57;;;;;;;14.50;8.13;;;11.20;99.90;;;;;;4943962;28;20058;-68
2023/09/23 03:24:25;;;;;;;15.02;8.50;;;11.20;99.90;;;;;;4915256;28;188317;-69
2023/09/23 03:26:53;;;;;;;14.98;8.32;;;11.20;99.90;;;;;;4944271;28;20070;-69
2023/09/23 03:29:20;;;;;;;16.65;8.60;;;11.10;99.90;;;;;;4918209;28;99088;-67
2023/09/23 03:31:46;;;;;;;15.88;8.55;;;11.10;99.90;;;;;;4945344;28;20054;-68
2023/09/23 03:34:14;;;;;;;17.08;8.85;;;11.10;99.90;;;;;;4903274;28;123628;-68
2023/09/23 03:36:41;;;;;;;13.75;7.88;;;11.10;99.90;;;;;;4947665;28;20083;-68
2023/09/23 03:39:10;;;;;;;13.48;8.15;;;11.00;99.90;;;;;;4889559;28;234816;-68
2023/09/23 03:41:37;;;;;;;14.98;9.02;;;11.00;99.90;;;;;;4946508;28;20051;-68
2023/09/23 03:44:07;;;;;;;18.33;9.32;;;11.00;99.90;;;;;;4903790;28;147172;-68
2023/09/23 03:46:34;;;;;;;16.42;10.02;;;10.90;99.90;;;;;;4943261;28;20188;-68
2023/09/23 03:49:00;;;;;;;17.38;9.75;;;10.90;99.90;;;;;;4903835;28;104338;-68
2023/09/23 03:51:26;;;;;;;17.33;10.32;;;10.90;99.90;;;;;;4946176;28;20047;-67
2023/09/23 03:53:52;;;;;;;17.10;9.73;;;10.80;99.90;;;;;;4887947;28;165290;-68
2023/09/23 03:56:24;;;;;;;18.65;10.05;;;10.90;99.90;;;;;;4948915;28;20070;-68
2023/09/23 03:58:51;;;;;;;;;;;10.90;99.90;;;;;;4917564;28;20050;-68
2023/09/23 04:01:17;;;;;;;20.23;10.50;;;10.80;99.90;;;;;;4941355;28;20686;-69
2023/09/23 04:03:43;;;;;;;18.90;11.02;;;10.80;99.90;;;;;;4898435;28;46178;-69
2023/09/23 04:06:09;;;;;;;17.88;10.95;;;10.80;99.90;;;;;;4939819;28;20058;-67
2023/09/23 04:08:35;;;;;;;18.55;10.80;;;10.80;99.90;;;;;;4902605;28;163329;-67
2023/09/23 04:11:08;;;;;;;19.63;11.02;;;10.80;99.90;;;;;;4943891;28;20055;-68
2023/09/23 04:13:34;;;;;;;18.63;11.40;;;10.80;99.90;;;;;;4906809;28;200913;-68
2023/09/23 04:16:01;;;;;;;19.83;11.93;;;10.80;99.90;;;;;;4948149;28;20055;-68
2023/09/23 04:18:28;;;;;;;17.88;11.38;;;10.80;99.90;;;;;;4912505;28;20065;-68
2023/09/23 04:20:54;;;;;;;18.30;11.55;;;10.70;99.90;;;;;;4951493;28;20106;-68
2023/09/23 04:23:20;;;;;;;19.80;12.65;;;10.70;99.90;;;;;;4908001;28;103669;-67
2023/09/23 04:25:50;;;;;;;22.23;12.70;;;10.70;99.90;;;;;;4954714;28;20062;-67
2023/09/23 04:28:17;;;;;;;22.77;12.83;;;10.70;99.90;;;;;;4911692;28;57807;-68
2023/09/23 04:30:43;;;;;;;20.65;13.00;;;10.70;99.90;;;;;;4957992;28;20537;-69
2023/09/23 04:33:11;;;;;;;23.10;13.32;;;10.70;99.90;;;;;;4921010;28;147474;-67
2023/09/23 04:35:38;;;;;;;22.65;13.13;;;10.60;99.90;;;;;;4940758;28;20122;-67
2023/09/23 04:38:04;;;;;;;23.10;13.63;;;10.60;99.90;;;;;;4908998;28;20888;-68
2023/09/23 04:40:30;;;;;;;22.52;14.25;;;10.60;99.90;;;;;;4951574;28;20054;-68
2023/09/23 04:42:56;;;;;;;23.95;13.75;;;10.60;99.90;;;;;;4904729;28;193433;-67
2023/09/23 04:45:24;;;;;;;22.92;14.40;;;10.60;99.90;;;;;;4954243;28;20058;-67
2023/09/23 04:47:50;;;;;;;22.75;14.18;;;10.60;99.90;;;;;;4907983;28;187974;-68
2023/09/23 04:50:17;;;;;;;24.83;14.50;;;10.60;99.90;;;;;;4959227;28;20650;-68
2023/09/23 04:52:44;;;;;;;21.92;14.00;;;10.60;99.90;;;;;;4901119;28;207503;-68
2023/09/23 04:55:11;;;;;;;23.98;14.13;;;10.70;99.90;;;;;;4958071;28;20043;-68
2023/09/23 04:57:37;;;;;;;26.63;15.43;;;10.60;99.90;;;;;;4923081;28;20075;-68
2023/09/23 05:00:04;;;;;;;25.40;14.90;;;10.70;99.90;;;;;;4934668;28;91801;-68
2023/09/23 05:02:31;;;;;;;24.95;15.30;;;10.70;99.90;;;;;;4951239;28;20051;-68
2023/09/23 05:04:57;;;;;;;24.58;15.50;;;10.70;99.90;;;;;;4916239;28;93839;-67
2023/09/23 05:07:26;;;;;;;24.10;15.00;;;10.70;99.90;;;;;;4947198;28;20054;-68
2023/09/23 05:09:55;;;;;;;22.15;14.60;;;10.70;99.90;;;;;;4914333;28;226986;-68
2023/09/23 05:12:22;;;;;;;24.42;13.98;;;10.70;99.90;;;;;;4948856;28;20062;-68
2023/09/23 05:14:48;;;;;;;22.33;13.75;;;10.70;99.90;;;;;;4906258;28;20075;-69
2023/09/23 05:17:15;;;;;;;22.30;14.50;;;10.70;99.90;;;;;;4947280;28;20047;-69
2023/09/23 05:19:42;;;;;;;25.73;13.70;;;10.70;99.90;;;;;;4924182;28;45086;-68
2023/09/23 05:22:10;;;;;;;22.02;13.90;;;10.70;99.90;;;;;;4946019;28;20410;-67
2023/09/23 05:24:38;;;;;;;21.85;13.40;;;10.70;99.90;;;;;;4910042;28;194280;-68
2023/09/23 05:27:04;;;;;;;26.85;15.25;;;10.70;99.90;;;;;;4946073;28;20066;-68
2023/09/23 05:29:31;;;;;;;22.00;14.20;;;10.70;99.90;;;;;;4917757;28;63393;-68
2023/09/23 05:31:57;;;;;;;25.20;15.32;;;10.60;99.90;;;;;;4947122;28;21336;-67
2023/09/23 05:34:23;;;;;;;27.88;16.15;;;10.70;99.90;;;;;;4917127;28;130470;-68
2023/09/23 05:36:49;;;;;;;26.05;15.82;;;10.60;99.90;;;;;;4945166;28;20059;-67
2023/09/23 05:39:19;;;;;;;24.67;16.63;;;10.60;99.90;;;;;;4888451;28;181343;-68
2023/09/23 05:41:51;;;;;;;25.02;15.00;;;10.60;99.90;;;;;;4956946;28;20517;-68
2023/09/23 05:44:18;;;;;;;33.72;18.10;;;10.60;99.90;;;;;;4915283;28;249409;-69
2023/09/23 05:46:46;;;;;;;31.67;18.88;;;10.60;99.90;;;;;;4949487;28;20058;-68
2023/09/23 05:49:13;;;;;;;30.50;18.08;;;10.70;99.90;;;;;;4903139;28;216485;-68
2023/09/23 05:51:39;;;;;;;31.35;19.00;;;10.80;99.90;;;;;;4949209;28;20055;-68
2023/09/23 05:54:08;;;;;;;35.33;18.98;;;10.80;99.90;;;;;;4881381;28;184377;-68
2023/09/23 05:56:34;;;;;;;33.13;18.88;;;10.80;99.90;;;;;;4944626;28;20070;-69
2023/09/23 05:59:00;;;;;;;38.97;21.35;;;10.80;99.90;;;;;;4903172;28;156175;-67
2023/09/23 06:01:26;;;;;;;37.38;21.25;;;10.80;99.90;;;;;;4943099;28;20047;-67
2023/09/23 06:03:53;;;;;;;35.35;20.33;;;10.80;99.90;;;;;;4907979;28;44909;-68
2023/09/23 06:06:19;;;;;;;34.22;21.15;;;10.80;99.90;;;;;;4936523;29;20051;-68
2023/09/23 06:08:50;;;;;;;38.25;21.80;;;10.90;99.90;;;;;;4917339;28;88254;-68
2023/09/23 06:11:16;;;;;;;45.08;23.60;;;10.90;99.90;;;;;;4943487;28;20521;-69
2023/09/23 06:13:42;;;;;;;35.63;23.00;;;11.00;99.90;;;;;;4903397;28;112375;-68
2023/09/23 06:16:09;;;;;;;43.42;24.35;;;11.00;99.90;;;;;;4946512;28;20059;-67
2023/09/23 06:18:35;;;;;;;37.65;23.75;;;11.10;99.90;;;;;;4902489;28;280732;-67
2023/09/23 06:21:02;;;;;;;43.13;25.10;;;11.10;99.90;;;;;;4954167;28;20639;-68
2023/09/23 06:23:28;;;;;;;38.80;23.85;;;11.10;99.90;;;;;;4905801;28;117454;-68
2023/09/23 06:25:55;;;;;;;41.97;25.65;;;11.20;99.90;;;;;;4942280;28;20066;-67
2023/09/23 06:28:22;;;;;;;42.30;25.23;;;11.20;99.90;;;;;;4909064;28;150248;-67
2023/09/23 06:30:48;;;;;;;42.53;26.98;;;11.30;99.90;;;;;;4960308;28;20051;-69
2023/09/23 06:33:15;;;;;;;41.63;26.30;;;11.30;99.90;;;;;;4907315;28;38121;-68
2023/09/23 06:35:41;;;;;;;40.42;25.20;;;11.40;99.90;;;;;;4955038;28;20103;-68
2023/09/23 06:38:07;;;;;;;39.60;26.65;;;11.40;99.90;;;;;;4907171;28;131045;-67
2023/09/23 06:40:33;;;;;;;38.10;25.05;;;11.60;99.90;;;;;;4944291;28;20051;-69
2023/09/23 06:42:59;;;;;;;37.28;26.13;;;11.70;99.90;;;;;;4901357;28;189423;-68
2023/09/23 06:45:25;;;;;;;36.88;26.20;;;11.70;99.90;;;;;;4953730;28;20494;-68
2023/09/23 06:47:51;;;;;;;37.78;25.60;;;11.80;99.90;;;;;;4919377;28;20051;-68
2023/09/23 06:50:17;;;;;;;33.47;25.05;;;12.00;99.90;;;;;;4942169;28;202961;-67
2023/09/23 06:52:43;;;;;;;36.33;23.92;;;12.10;99.90;;;;;;4913502;28;20979;-68
2023/09/23 06:55:09;;;;;;;33.17;23.38;;;12.10;99.90;;;;;;4889413;28;119513;-67
2023/09/23 06:57:36;;;;;;;35.03;24.50;;;12.10;99.90;;;;;;4923777;28;20059;-68
2023/09/23 07:00:07;;;;;;;34.35;23.67;;;12.10;99.90;;;;;;4915375;28;20470;-67
2023/09/23 07:02:34;;;;;;;34.53;23.88;;;12.10;99.90;;;;;;4937898;28;20066;-68
2023/09/23 07:05:00;;;;;;;31.27;22.67;;;12.10;99.90;;;;;;4912190;28;157913;-67
2023/09/23 07:07:27;;;;;;;32.53;23.70;;;12.00;99.90;;;;;;4946671;28;20047;-68
2023/09/23 07:09:53;;;;;;;32.95;22.92;;;12.00;99.90;;;;;;4900949;28;126109;-67
2023/09/23 07:12:20;;;;;;;33.25;23.25;;;12.00;99.90;;;;;;4946457;28;20051;-68
2023/09/23 07:14:46;;;;;;;33.47;23.52;;;12.10;99.90;;;;;;4918526;28;87092;-68
2023/09/23 07:17:12;;;;;;;34.85;23.30;;;12.10;99.90;;;;;;4944275;28;20052;-68
2023/09/23 07:19:38;;;;;;;32.03;23.67;;;12.20;99.90;;;;;;4909829;28;234321;-67
2023/09/23 07:22:04;;;;;;;34.90;23.52;;;12.20;99.90;;;;;;4945930;28;20051;-67
2023/09/23 07:24:34;;;;;;;33.15;23.65;;;12.20;99.90;;;;;;4909347;28;216072;-67
2023/09/23 07:27:00;;;;;;;36.45;24.73;;;12.30;99.90;;;;;;4947650;28;20054;-68
2023/09/23 07:29:26;;;;;;;35.80;25.50;;;12.50;99.90;;;;;;4914748;28;70854;-68
2023/09/23 07:31:53;;;;;;;32.35;23.60;;;12.60;99.90;;;;;;4945491;28;20047;-67
2023/09/23 07:34:19;;;;;;;30.40;22.05;;;12.70;99.90;;;;;;4918122;28;20063;-68
2023/09/23 07:36:46;;;;;;;30.70;22.60;;;12.70;99.90;;;;;;4960375;28;20505;-68
2023/09/23 07:39:12;;;;;;;39.50;23.33;;;12.90;99.90;;;;;;4917308;28;21440;-67
2023/09/23 07:41:39;;;;;;;29.83;21.63;;;13.00;99.90;;;;;;4948536;28;20055;-68
2023/09/23 07:44:05;;;;;;;26.92;19.60;;;13.30;99.90;;;;;;4914666;28;172333;-68
2023/09/23 07:46:32;;;;;;;26.20;21.17;;;13.40;99.90;;;;;;4951145;28;20552;-68
2023/09/23 07:48:58;;;;;;;26.10;20.13;;;13.50;99.90;;;;;;4914668;28;27413;-68
2023/09/23 07:51:24;;;;;;;28.05;20.23;;;13.40;99.90;;;;;;4953473;28;20067;-68
2023/09/23 07:53:52;;;;;;;28.60;19.83;;;13.40;99.90;;;;;;4885663;28;243035;-68
2023/09/23 07:56:18;;;;;;;26.58;19.27;;;13.40;99.90;;;;;;4945061;28;20066;-67
2023/09/23 07:58:44;;;;;;;26.65;19.25;;;13.40;99.90;;;;;;4910347;28;126923;-68
2023/09/23 08:01:10;;;;;;;33.13;19.50;;;13.50;99.90;;;;;;4946821;28;20514;-69
2023/09/23 08:03:36;;;;;;;25.00;17.88;;;13.50;99.90;;;;;;4911355;28;89094;-68
2023/09/23 08:06:02;;;;;;;22.98;17.55;;;13.70;99.90;;;;;;4951329;28;20052;-68
2023/09/23 08:08:28;;;;;;;20.35;16.13;;;13.80;99.90;;;;;;4906556;28;280086;-68
2023/09/23 08:10:54;;;;;;;21.50;15.88;;;14.30;99.90;;;;;;4952977;28;20059;-67
2023/09/23 08:13:20;;;;;;;20.00;15.15;;;14.60;99.90;;;;;;4913450;28;20051;-67
2023/09/23 08:15:47;;;;;;;18.48;13.60;;;14.90;99.90;;;;;;4953637;28;20062;-66
2023/09/23 08:18:13;;;;;;;18.80;13.85;;;14.90;99.90;;;;;;4905642;28;98496;-66
2023/09/23 08:20:40;;;;;;;18.80;12.50;;;15.10;99.90;;;;;;4944456;28;20063;-67
2023/09/23 08:23:06;;;;;;;19.40;12.90;;;15.10;99.90;;;;;;4906556;28;20054;-68
2023/09/23 08:25:34;;;;;;;18.60;11.85;;;15.60;99.90;;;;;;4947747;28;20078;-67
2023/09/23 08:28:01;;;;;;;17.05;11.18;;;15.60;99.90;;;;;;4902484;28;213869;-67
2023/09/23 08:30:27;;;;;;;17.98;11.73;;;15.70;99.90;;;;;;4957810;28;20063;-68
2023/09/23 08:32:54;;;;;;;15.45;10.65;;;15.60;99.90;;;;;;4904569;28;134795;-67
2023/09/23 08:35:21;;;;;;;15.38;10.20;;;16.00;99.90;;;;;;4943817;28;20051;-68
2023/09/23 08:37:47;;;;;;;16.35;10.15;;;16.30;99.90;;;;;;4908334;28;30742;-67
2023/09/23 08:40:15;;;;;;;16.58;9.70;;;17.00;99.90;;;;;;4931711;29;20059;-68
2023/09/23 08:42:42;;;;;;;13.80;8.80;;;17.40;99.90;;;;;;4914357;28;20117;-67
2023/09/23 08:45:09;;;;;;;13.02;8.55;;;17.90;99.90;;;;;;4957574;28;20469;-69
2023/09/23 08:47:39;;;;;;;15.98;9.13;;;17.50;99.90;;;;;;4927969;28;20065;-67
2023/09/23 08:50:08;;;;;;;12.90;7.90;;;16.80;99.90;;;;;;4937960;28;20782;-69
2023/09/23 08:52:35;;;;;;;14.68;7.68;;;16.80;99.90;;;;;;4935819;28;20066;-68
2023/09/23 08:55:03;;;;;;;13.15;8.07;;;17.30;99.90;;;;;;4904219;28;255595;-68
2023/09/23 08:57:31;;;;;;;12.73;7.43;;;16.90;99.90;;;;;;4948834;28;20051;-67
2023/09/23 09:00:00;;;;;;;12.80;7.55;;;16.50;99.90;;;;;;4924463;28;20051;-68
2023/09/23 09:02:26;;;;;;;13.75;7.38;;;16.30;99.90;;;;;;4948344;28;20047;-67
2023/09/23 09:04:54;;;;;;;16.02;7.55;;;16.30;99.90;;;;;;4896715;28;252877;-68
2023/09/23 09:07:34;;;;;;;14.35;7.72;;;16.90;99.90;;;;;;4946322;28;20055;-68
2023/09/23 09:10:00;;;;;;;14.18;7.63;;;17.00;99.90;;;;;;4893740;28;20055;-67
2023/09/23 09:12:27;;;;;;;14.65;7.25;;;17.80;99.90;;;;;;4944331;28;20050;-68
2023/09/23 09:14:53;;;;;;;13.10;6.72;;;17.70;99.90;;;;;;4895922;28;199541;-68
2023/09/23 09:17:20;;;;;;;14.02;6.93;;;17.70;99.90;;;;;;4943290;28;20051;-67
2023/09/23 09:19:47;;;;;;;12.77;6.22;;;18.60;99.90;;;;;;4918603;28;112333;-68
2023/09/23 09:22:17;;;;;;;11.38;6.18;;;19.20;99.90;;;;;;4948166;28;20051;-68
2023/09/23 09:24:44;;;;;;;11.88;6.72;;;18.40;99.90;;;;;;4903256;28;52807;-68
2023/09/23 09:27:12;;;;;;;12.50;6.60;;;17.60;99.90;;;;;;4946008;28;20051;-69
2023/09/23 09:29:43;;;;;;;11.48;6.55;;;17.00;99.90;;;;;;4903799;28;27272;-67
2023/09/23 09:32:10;;;;;;;10.48;6.35;;;16.80;99.90;;;;;;4953329;28;20059;-68
2023/09/23 09:34:45;;;;;;;12.07;6.60;;;16.50;99.90;;;;;;4889687;28;183461;-68
2023/09/23 09:37:13;;;;;;;12.77;5.70;;;17.00;99.90;;;;;;4946038;28;20627;-68
2023/09/23 09:40:08;;;;;;;11.45;5.20;;;18.00;99.90;;;;;;4892087;28;51033;-68
2023/09/23 09:42:39;;;;;;;14.98;5.00;;;17.80;99.90;;;;;;4933978;28;20055;-68
2023/09/23 09:45:09;;;;;;;11.60;4.65;;;18.40;99.90;;;;;;4924077;28;20043;-68
2023/09/23 09:47:39;;;;;;;14.00;4.78;;;19.00;99.90;;;;;;4925431;28;20442;-68
2023/09/23 09:50:07;;;;;;;11.97;4.60;;;19.90;99.90;;;;;;4917670;28;271320;-69
2023/09/23 09:52:35;;;;;;;10.00;4.30;;;19.60;99.90;;;;;;4921471;28;20068;-69
2023/09/23 09:55:03;;;;;;;10.85;3.85;;;18.90;99.90;;;;;;4890054;28;205376;-68
2023/09/23 09:57:29;;;;;;;10.55;3.88;;;18.20;99.90;;;;;;4948976;28;20062;-68
2023/09/23 10:00:00;;;;;;;8.73;3.88;;;18.00;99.90;;;;;;4884339;28;133666;-68
2023/09/23 10:02:27;;;;;;;11.95;3.80;;;17.70;99.90;;;;;;4945768;28;20054;-68
2023/09/23 10:04:54;;;;;;;10.23;3.63;;;17.50;99.90;;;;;;4921627;28;105826;-68
2023/09/23 10:07:23;;;;;;;12.13;3.97;;;18.50;99.90;;;;;;4946173;28;20055;-69
2023/09/23 10:09:55;;;;;;;10.63;4.10;;;18.80;99.90;;;;;;4920143;28;188294;-68
2023/09/23 10:12:25;;;;;;;11.45;3.97;;;18.30;99.90;;;;;;4949022;28;20043;-67
2023/09/23 10:14:55;;;;;;;10.68;3.90;;;18.90;99.90;;;;;;4912584;28;166275;-69
2023/09/23 10:17:36;;;;;;;10.25;3.60;;;19.20;99.90;;;;;;4944103;28;20054;-68
2023/09/23 10:20:10;;;;;;;10.68;3.60;;;18.70;99.90;;;;;;4893363;28;20460;-68
2023/09/23 10:22:36;;;;;;;9.10;3.60;;;18.40;99.90;;;;;;4925837;28;20564;-67
2023/09/23 10:25:10;;;;;;;8.93;3.60;;;18.10;99.90;;;;;;4939103;28;170115;-69
2023/09/23 10:27:38;;;;;;;10.15;3.25;;;18.30;99.90;;;;;;4925853;28;20058;-68
2023/09/23 10:30:06;;;;;;;10.73;3.13;;;19.00;99.90;;;;;;4942050;28;221063;-68
2023/09/23 10:32:32;;;;;;;11.85;3.10;;;19.10;99.90;;;;;;4941649;28;20065;-68
2023/09/23 10:34:59;;;;;;;10.50;3.10;;;18.90;99.90;;;;;;4926391;28;109029;-69
2023/09/23 10:37:26;;;;;;;9.65;3.40;;;18.60;99.90;;;;;;4949088;28;20051;-68
2023/09/23 10:39:52;;;;;;;9.65;3.00;;;18.40;99.90;;;;;;4900937;28;254213;-69
2023/09/23 10:42:19;;;;;;;9.45;2.70;;;18.00;99.90;;;;;;4947773;28;20058;-67
2023/09/23 10:44:48;;;;;;;8.05;2.63;;;17.80;99.90;;;;;;4917998;28;104249;-68
2023/09/23 10:47:14;;;;;;;9.95;3.13;;;17.80;99.90;;;;;;4944125;28;20058;-68
2023/09/23 10:49:40;;;;;;;11.20;3.28;;;17.80;99.90;;;;;;4915085;28;200414;-68
2023/09/23 10:52:06;;;;;;;8.93;3.25;;;17.70;99.90;;;;;;4945329;28;20051;-69
2023/09/23 10:54:34;;;;;;;10.18;2.97;;;17.80;99.90;;;;;;4898209;28;184576;-67
2023/09/23 10:57:01;;;;;;;9.75;3.22;;;17.90;99.90;;;;;;4945268;28;20510;-68
2023/09/23 10:59:28;;;;;;;9.52;2.88;;;18.10;99.90;;;;;;4908581;28;277614;-68
2023/09/23 11:01:56;;;;;;;9.55;2.70;;;18.10;99.90;;;;;;4958838;28;20047;-68
2023/09/23 11:04:23;;;;;;;8.70;2.30;;;17.90;99.90;;;;;;4897505;28;221535;-68
2023/09/23 11:06:50;;;;;;;10.23;2.28;;;17.90;99.90;;;;;;4945169;28;20170;-68
2023/09/23 11:09:20;;;;;;;10.70;2.38;;;17.80;99.90;;;;;;4919162;28;117703;-68
2023/09/23 11:11:47;;;;;;;10.50;3.25;;;17.90;99.90;;;;;;4943948;28;20426;-68
2023/09/23 11:14:13;;;;;;;8.63;2.17;;;17.70;99.90;;;;;;4916493;28;62618;-68
2023/09/23 11:16:44;;;;;;;8.40;2.30;;;17.50;99.90;;;;;;4948640;28;20054;-69
2023/09/23 11:19:10;;;;;;;8.88;1.80;;;17.50;99.90;;;;;;4911171;28;114287;-67
2023/09/23 11:21:46;;;;;;;11.10;2.28;;;17.30;99.90;;;;;;4951672;28;20063;-69
2023/09/23 11:24:13;;;;;;;10.30;2.28;;;17.40;99.90;;;;;;4900738;28;195762;-68
2023/09/23 11:26:40;;;;;;;9.57;2.33;;;17.30;99.90;;;;;;4948899;28;20051;-68
2023/09/23 11:29:07;;;;;;;7.88;2.40;;;17.30;99.90;;;;;;4914446;28;233653;-68
2023/09/23 11:31:34;;;;;;;8.43;1.92;;;17.30;99.90;;;;;;4949778;28;20055;-68
2023/09/23 11:34:01;;;;;;;8.98;2.10;;;17.60;99.90;;;;;;4912486;28;171247;-68
2023/09/23 11:36:27;;;;;;;9.10;2.05;;;17.60;99.90;;;;;;4948493;28;20067;-69
2023/09/23 11:38:53;;;;;;;9.70;1.90;;;17.70;99.90;;;;;;4917809;28;20050;-68
2023/09/23 11:41:19;;;;;;;8.77;2.10;;;17.80;99.90;;;;;;4953936;28;20058;-71
2023/09/23 11:43:46;;;;;;;9.50;2.03;;;17.70;99.90;;;;;;4907376;28;214152;-67
2023/09/23 11:46:14;;;;;;;9.18;2.00;;;17.60;99.90;;;;;;4949437;28;20055;-68
2023/09/23 11:48:41;;;;;;;9.38;1.90;;;17.40;99.90;;;;;;4902790;28;62177;-68
2023/09/23 11:51:07;;;;;;;7.55;1.67;;;17.30;99.90;;;;;;4949870;28;20063;-68
2023/09/23 11:53:35;;;;;;;7.63;1.60;;;17.10;99.90;;;;;;4885840;28;182042;-68
2023/09/23 11:56:02;;;;;;;8.52;1.85;;;17.10;99.90;;;;;;4946062;28;20067;-68
2023/09/23 11:58:28;;;;;;;7.70;2.58;;;17.00;99.90;;;;;;4911954;28;173428;-69
2023/09/23 12:00:56;;;;;;;9.88;2.88;;;16.90;99.90;;;;;;4928708;29;20051;-67
2023/09/23 12:03:22;;;;;;;16.38;3.40;;;16.80;99.90;;;;;;4909621;28;198688;-67
2023/09/23 12:05:50;;;;;;;11.68;4.00;;;16.60;99.90;;;;;;4956092;28;20050;-68
2023/09/23 12:08:16;;;;;;;8.85;2.95;;;16.30;99.90;;;;;;4912727;28;20057;-69
2023/09/23 12:10:42;;;;;;;12.25;2.63;;;16.00;99.90;;;;;;4959820;28;20514;-67
2023/09/23 12:13:08;;;;;;;10.80;1.60;;;15.70;99.90;;;;;;4906740;28;84707;-68
2023/09/23 12:15:34;;;;;;;8.93;1.45;;;15.20;99.90;;;;;;4947447;28;20059;-70
2023/09/23 12:18:01;;;;;;;9.32;1.50;;;14.90;99.90;;;;;;4923892;28;101968;-68
2023/09/23 12:20:27;;;;;;;6.10;1.48;;;14.60;99.90;;;;;;4945766;28;20063;-68
2023/09/23 12:22:53;;;;;;;8.00;1.75;;;14.50;99.90;;;;;;4906122;28;237914;-68
2023/09/23 12:25:20;;;;;;;7.68;1.98;;;14.60;99.90;;;;;;4962259;28;20047;-68
2023/09/23 12:27:46;;;;;;;8.98;1.73;;;14.60;99.90;;;;;;4905060;28;141588;-68
2023/09/23 12:30:17;;;;;;;8.35;2.00;;;14.70;99.90;;;;;;4961956;28;20078;-69
2023/09/23 12:32:43;;;;;;;9.05;1.98;;;14.70;99.90;;;;;;4903256;28;245512;-68
2023/09/23 12:35:11;;;;;;;8.95;2.10;;;14.80;99.90;;;;;;4927980;29;20059;-68